Time;durP1;ratioP1;P1;durP2;ratioP2;P2;SDS_P1;SDS_P2;PMS_P1;PMS_P2;Temp;Humidity;BMP_temperature;BMP_pressure;BME280_temperature;BME280_humidity;BME280_pressure;Samples;Min_cycle;Max_cycle;Signal;HPM_P1;HPM_P2
2024/01/17 00:00:05;;;;;;;;;;;;;;;;;;5014845;28;59594;-68
2024/01/17 00:02:31;;;;;;;;;;;;;;;;;;5019709;27;60528;-69
2024/01/17 00:04:56;;;;;;;;;;;;;;;;;;5018444;28;59988;-68
2024/01/17 00:07:21;;;;;;;;;;;;;;;;;;5018447;28;59401;-69
2024/01/17 00:09:46;;;;;;;;;;;;;;;;;;5017916;28;60596;-68
2024/01/17 00:12:11;;;;;;;;;;;;;;;;;;5017407;28;59547;-69
2024/01/17 00:14:36;;;;;;;;;;;;;;;;;;5021038;28;61449;-69
2024/01/17 00:17:01;;;;;;;;;;;;;;;;;;5013035;28;59719;-69
2024/01/17 00:19:29;;;;;;;;;;;;;;;;;;5017778;28;60594;-68
2024/01/17 00:21:55;;;;;;;;;;;;;;;;;;5018085;28;61513;-69
2024/01/17 00:24:20;;;;;;;;;;;;;;;;;;5018659;28;60049;-68
2024/01/17 00:26:45;;;;;;;;;;;;;;;;;;5021071;28;59262;-68
2024/01/17 00:29:10;;;;;;;;;;;;;;;;;;5018336;28;61048;-69
2024/01/17 00:31:35;;;;;;;;;;;;;;;;;;5019701;28;59190;-69
2024/01/17 00:34:00;;;;;;;;;;;;;;;;;;5019272;28;60554;-69
2024/01/17 00:36:25;;;;;;;;;;;;;;;;;;5015567;28;59437;-68
2024/01/17 00:38:51;;;;;;;;;;;;;;;;;;5021705;27;59163;-68
2024/01/17 00:41:16;;;;;;;;;;;;;;;;;;5018983;28;60290;-69
2024/01/17 00:43:41;;;;;;;;;;;;;;;;;;5017719;28;60071;-68
2024/01/17 00:46:06;;;;;;;;;;;;;;;;;;5011772;28;59871;-69
2024/01/17 00:48:31;;;;;;;;;;;;;;;;;;5019053;28;59350;-68
2024/01/17 00:50:56;;;;;;;;;;;;;;;;;;5016194;28;59394;-68
2024/01/17 00:53:22;;;;;;;;;;;;;;;;;;5016804;28;59266;-68
2024/01/17 00:55:47;;;;;;;;;;;;;;;;;;5015382;28;59327;-69
2024/01/17 00:58:12;;;;;;;;;;;;;;;;;;5018385;27;59346;-68
2024/01/17 01:00:39;;;;;;;;;;;;;;;;;;5015770;28;59382;-68
2024/01/17 01:03:04;;;;;;;;;;;;;;;;;;5015725;28;59910;-68
2024/01/17 01:05:29;;;;;;;;;;;;;;;;;;5013908;28;59493;-69
2024/01/17 01:07:54;;;;;;;;;;;;;;;;;;5014689;28;60703;-69
2024/01/17 01:10:19;;;;;;;;;;;;;;;;;;5015161;28;60188;-68
2024/01/17 01:12:44;;;;;;;;;;;;;;;;;;5015661;27;59391;-66
2024/01/17 01:15:09;;;;;;;;;;;;;;;;;;5016471;28;59541;-66
2024/01/17 01:17:34;;;;;;;;;;;;;;;;;;5017310;28;59526;-66
2024/01/17 01:19:59;;;;;;;;;;;;;;;;;;5012633;28;59549;-66
2024/01/17 01:22:24;;;;;;;;;;;;;;;;;;5013800;28;59216;-66
2024/01/17 01:24:49;;;;;;;;;;;;;;;;;;5015603;27;59205;-66
2024/01/17 01:27:15;;;;;;;;;;;;;;;;;;5017666;28;60467;-67
2024/01/17 01:29:40;;;;;;;;;;;;;;;;;;5015796;27;60404;-66
2024/01/17 01:32:05;;;;;;;;;;;;;;;;;;5019086;28;59585;-66
2024/01/17 01:34:30;;;;;;;;;;;;;;;;;;5022241;28;59651;-66
2024/01/17 01:36:55;;;;;;;;;;;;;;;;;;5019371;28;59638;-66
2024/01/17 01:39:20;;;;;;;;;;;;;;;;;;5017387;28;60515;-66
2024/01/17 01:41:45;;;;;;;;;;;;;;;;;;5016928;28;60002;-66
2024/01/17 01:44:11;;;;;;;;;;;;;;;;;;5015307;28;59429;-66
2024/01/17 01:46:36;;;;;;;;;;;;;;;;;;5018441;28;61885;-66
2024/01/17 01:49:01;;;;;;;;;;;;;;;;;;5019674;27;59207;-66
2024/01/17 01:51:26;;;;;;;;;;;;;;;;;;5017028;27;59259;-66
2024/01/17 01:53:51;;;;;;;;;;;;;;;;;;5016992;28;60836;-66
2024/01/17 01:56:16;;;;;;;;;;;;;;;;;;5016736;28;59513;-66
2024/01/17 01:58:41;;;;;;;;;;;;;;;;;;5013889;28;60925;-66
2024/01/17 02:01:07;;;;;;;;;;;;;;;;;;5020885;27;59167;-66
2024/01/17 02:03:32;;;;;;;;;;;;;;;;;;5016579;27;59560;-67
2024/01/17 02:05:57;;;;;;;;;;;;;;;;;;5016778;28;59340;-66
2024/01/17 02:08:22;;;;;;;;;;;;;;;;;;5017911;28;59613;-66
2024/01/17 02:10:47;;;;;;;;;;;;;;;;;;5018753;28;59373;-69
2024/01/17 02:13:12;;;;;;;;;;;;;;;;;;5021360;28;60471;-68
2024/01/17 02:15:37;;;;;;;;;;;;;;;;;;5020183;27;59457;-69
2024/01/17 02:18:02;;;;;;;;;;;;;;;;;;5018994;28;58928;-68
2024/01/17 02:20:27;;;;;;;;;;;;;;;;;;5016164;28;59566;-68
2024/01/17 02:22:52;;;;;;;;;;;;;;;;;;5021130;28;59225;-66
2024/01/17 02:25:17;;;;;;;;;;;;;;;;;;5019029;28;59395;-66
2024/01/17 02:27:42;;;;;;;;;;;;;;;;;;5016850;27;59242;-66
2024/01/17 02:30:08;;;;;;;;;;;;;;;;;;5021303;27;59665;-66
2024/01/17 02:32:33;;;;;;;;;;;;;;;;;;5020635;28;60286;-66
2024/01/17 02:34:58;;;;;;;;;;;;;;;;;;5019109;28;59522;-65
2024/01/17 02:37:23;;;;;;;;;;;;;;;;;;5023077;28;59350;-66
2024/01/17 02:39:48;;;;;;;;;;;;;;;;;;5016424;27;59550;-66
2024/01/17 02:42:13;;;;;;;;;;;;;;;;;;5014725;28;59454;-66
2024/01/17 02:44:38;;;;;;;;;;;;;;;;;;5013076;28;60246;-66
2024/01/17 02:47:03;;;;;;;;;;;;;;;;;;5018847;28;59503;-66
2024/01/17 02:49:28;;;;;;;;;;;;;;;;;;5017904;28;59480;-66
2024/01/17 02:51:53;;;;;;;;;;;;;;;;;;5020678;28;60481;-66
2024/01/17 02:54:19;;;;;;;;;;;;;;;;;;5017627;28;59269;-66
2024/01/17 02:56:44;;;;;;;;;;;;;;;;;;5021124;28;59193;-66
2024/01/17 02:59:09;;;;;;;;;;;;;;;;;;5015978;27;59952;-66
2024/01/17 03:01:34;;;;;;;;;;;;;;;;;;5019397;28;59701;-66
2024/01/17 03:03:59;;;;;;;;;;;;;;;;;;5015992;28;60324;-66
2024/01/17 03:06:24;;;;;;;;;;;;;;;;;;5017030;27;59175;-66
2024/01/17 03:08:49;;;;;;;;;;;;;;;;;;5015960;28;59456;-66
2024/01/17 03:11:14;;;;;;;;;;;;;;;;;;5016307;28;60010;-66
2024/01/17 03:13:39;;;;;;;;;;;;;;;;;;5017248;28;59655;-66
2024/01/17 03:16:04;;;;;;;;;;;;;;;;;;5016804;28;58933;-66
2024/01/17 03:18:30;;;;;;;;;;;;;;;;;;5016511;28;60552;-66
2024/01/17 03:20:55;;;;;;;;;;;;;;;;;;5015728;28;59490;-66
2024/01/17 03:23:20;;;;;;;;;;;;;;;;;;5013473;28;59176;-66
2024/01/17 03:25:45;;;;;;;;;;;;;;;;;;5023354;28;59172;-66
2024/01/17 03:28:10;;;;;;;;;;;;;;;;;;5017861;27;59692;-66
2024/01/17 03:30:36;;;;;;;;;;;;;;;;;;5017913;27;60198;-66
2024/01/17 03:33:01;;;;;;;;;;;;;;;;;;5018106;28;59403;-69
2024/01/17 03:35:26;;;;;;;;;;;;;;;;;;5018523;28;59297;-69
2024/01/17 03:37:52;;;;;;;;;;;;;;;;;;5017727;27;61392;-68
2024/01/17 03:40:17;;;;;;;;;;;;;;;;;;5016503;28;59588;-68
2024/01/17 03:42:42;;;;;;;;;;;;;;;;;;5016613;28;59398;-68
2024/01/17 03:45:07;;;;;;;;;;;;;;;;;;5014976;28;59332;-68
2024/01/17 03:47:32;;;;;;;;;;;;;;;;;;5016118;28;59301;-69
2024/01/17 03:49:57;;;;;;;;;;;;;;;;;;5014753;28;62123;-69
2024/01/17 03:52:22;;;;;;;;;;;;;;;;;;5017016;28;59778;-68
2024/01/17 03:54:48;;;;;;;;;;;;;;;;;;5013085;28;59479;-69
2024/01/17 03:57:13;;;;;;;;;;;;;;;;;;5018362;27;59814;-68
2024/01/17 03:59:38;;;;;;;;;;;;;;;;;;5015267;27;59927;-69
2024/01/17 04:02:03;;;;;;;;;;;;;;;;;;5016355;27;59578;-70
2024/01/17 04:04:28;;;;;;;;;;;;;;;;;;5017932;28;61830;-69
2024/01/17 04:06:53;;;;;;;;;;;;;;;;;;5019637;27;59290;-69
2024/01/17 04:09:18;;;;;;;;;;;;;;;;;;5017168;28;60051;-69
2024/01/17 04:11:45;;;;;;;;;;;;;;;;;;5017197;28;59946;-69
2024/01/17 04:14:10;;;;;;;;;;;;;;;;;;5016421;28;59381;-68
2024/01/17 04:16:36;;;;;;;;;;;;;;;;;;5015650;28;59354;-69
2024/01/17 04:19:01;;;;;;;;;;;;;;;;;;5014844;28;59678;-70
2024/01/17 04:21:26;;;;;;;;;;;;;;;;;;5016359;28;59851;-68
2024/01/17 04:23:53;;;;;;;;;;;;;;;;;;5014154;28;81269;-69
2024/01/17 04:26:18;;;;;;;;;;;;;;;;;;5016425;28;59249;-70
2024/01/17 04:28:43;;;;;;;;;;;;;;;;;;5017165;28;60154;-68
2024/01/17 04:31:09;;;;;;;;;;;;;;;;;;5019249;28;59525;-68
2024/01/17 04:33:34;;;;;;;;;;;;;;;;;;5019345;28;59546;-67
2024/01/17 04:35:59;;;;;;;;;;;;;;;;;;5017129;28;60355;-68
2024/01/17 04:38:24;;;;;;;;;;;;;;;;;;5019295;28;59570;-67
2024/01/17 04:40:49;;;;;;;;;;;;;;;;;;5021848;28;59575;-66
2024/01/17 04:43:14;;;;;;;;;;;;;;;;;;5020589;27;60187;-68
2024/01/17 04:45:39;;;;;;;;;;;;;;;;;;5020092;28;59525;-69
2024/01/17 04:48:07;;;;;;;;;;;;;;;;;;5014023;27;59632;-69
2024/01/17 04:50:32;;;;;;;;;;;;;;;;;;5018060;27;59401;-68
2024/01/17 04:52:57;;;;;;;;;;;;;;;;;;5016377;28;59155;-69
2024/01/17 04:55:22;;;;;;;;;;;;;;;;;;5018409;28;59383;-67
2024/01/17 04:57:47;;;;;;;;;;;;;;;;;;5019511;27;59801;-68
2024/01/17 05:00:14;;;;;;;;;;;;;;;;;;5021106;28;59183;-69
2024/01/17 05:02:40;;;;;;;;;;;;;;;;;;5017280;28;60304;-69
2024/01/17 05:05:05;;;;;;;;;;;;;;;;;;5020704;27;59332;-69
2024/01/17 05:07:31;;;;;;;;;;;;;;;;;;5018422;28;59330;-68
2024/01/17 05:09:56;;;;;;;;;;;;;;;;;;5019659;28;60162;-69
2024/01/17 05:12:21;;;;;;;;;;;;;;;;;;5012055;28;60700;-67
2024/01/17 05:14:46;;;;;;;;;;;;;;;;;;5021347;28;61311;-69
2024/01/17 05:17:11;;;;;;;;;;;;;;;;;;5014404;27;59188;-68
2024/01/17 05:19:37;;;;;;;;;;;;;;;;;;5018291;28;59198;-69
2024/01/17 05:22:02;;;;;;;;;;;;;;;;;;5019632;28;60237;-69
2024/01/17 05:24:28;;;;;;;;;;;;;;;;;;5017347;27;59448;-69
2024/01/17 05:26:53;;;;;;;;;;;;;;;;;;5022709;27;59184;-69
2024/01/17 05:29:18;;;;;;;;;;;;;;;;;;5015814;28;60451;-68
2024/01/17 05:31:43;;;;;;;;;;;;;;;;;;5017874;28;59463;-70
2024/01/17 05:34:08;;;;;;;;;;;;;;;;;;5016747;27;59600;-69
2024/01/17 05:36:33;;;;;;;;;;;;;;;;;;5015975;27;59318;-69
2024/01/17 05:38:58;;;;;;;;;;;;;;;;;;5019358;27;60034;-69
2024/01/17 05:41:23;;;;;;;;;;;;;;;;;;5013348;27;60533;-69
2024/01/17 05:43:48;;;;;;;;;;;;;;;;;;5013091;28;59632;-78
2024/01/17 05:46:14;;;;;;;;;;;;;;;;;;5021152;28;59636;-73
2024/01/17 05:48:39;;;;;;;;;;;;;;;;;;5024458;27;61251;-75
2024/01/17 05:51:05;;;;;;;;;;;;;;;;;;5023464;28;59375;-75
2024/01/17 05:53:30;;;;;;;;;;;;;;;;;;5021410;27;60767;-75
2024/01/17 05:55:55;;;;;;;;;;;;;;;;;;5018505;27;59152;-75
2024/01/17 05:58:20;;;;;;;;;;;;;;;;;;5021116;28;59272;-76
2024/01/17 06:00:46;;;;;;;;;;;;;;;;;;5020494;27;60266;-75
2024/01/17 06:03:11;;;;;;;;;;;;;;;;;;5022604;28;59444;-75
2024/01/17 06:05:36;;;;;;;;;;;;;;;;;;5024225;27;59570;-75
2024/01/17 06:08:01;;;;;;;;;;;;;;;;;;5023943;28;60161;-75
2024/01/17 06:10:28;;;;;;;;;;;;;;;;;;5021813;28;59436;-75
2024/01/17 06:12:53;;;;;;;;;;;;;;;;;;5020936;28;60322;-75
2024/01/17 06:15:18;;;;;;;;;;;;;;;;;;5020309;28;59518;-75
2024/01/17 06:17:43;;;;;;;;;;;;;;;;;;5024000;28;59753;-75
2024/01/17 06:20:09;;;;;;;;;;;;;;;;;;5022024;28;59623;-76
2024/01/17 06:22:35;;;;;;;;;;;;;;;;;;5023516;28;59709;-75
2024/01/17 06:25:00;;;;;;;;;;;;;;;;;;5022454;28;59286;-75
2024/01/17 06:27:25;;;;;;;;;;;;;;;;;;5024140;28;59840;-75
2024/01/17 06:29:51;;;;;;;;;;;;;;;;;;5018776;28;60109;-75
2024/01/17 06:32:16;;;;;;;;;;;;;;;;;;5025159;28;59388;-75
2024/01/17 06:34:43;;;;;;;;;;;;;;;;;;5020999;28;59439;-75
2024/01/17 06:37:08;;;;;;;;;;;;;;;;;;5021386;28;58946;-75
2024/01/17 06:39:33;;;;;;;;;;;;;;;;;;5021800;28;60067;-75
2024/01/17 06:41:59;;;;;;;;;;;;;;;;;;5022686;28;59215;-75
2024/01/17 06:44:24;;;;;;;;;;;;;;;;;;5021633;28;77214;-76
2024/01/17 06:46:49;;;;;;;;;;;;;;;;;;5021434;28;60355;-75
2024/01/17 06:49:14;;;;;;;;;;;;;;;;;;5022794;28;59247;-75
2024/01/17 06:51:39;;;;;;;;;;;;;;;;;;5022617;28;58884;-75
2024/01/17 06:54:04;;;;;;;;;;;;;;;;;;5016636;28;60134;-75
2024/01/17 06:56:29;;;;;;;;;;;;;;;;;;5023459;27;59492;-75
2024/01/17 06:58:54;;;;;;;;;;;;;;;;;;5020849;28;60185;-75
2024/01/17 07:01:19;;;;;;;;;;;;;;;;;;5021909;28;59400;-72
2024/01/17 07:03:45;;;;;;;;;;;;;;;;;;5021708;28;59620;-72
2024/01/17 07:06:10;;;;;;;;;;;;;;;;;;5022082;28;60490;-72
2024/01/17 07:08:36;;;;;;;;;;;;;;;;;;5021589;28;59336;-72
2024/01/17 07:11:01;;;;;;;;;;;;;;;;;;5022508;28;59676;-72
2024/01/17 07:13:26;;;;;;;;;;;;;;;;;;5023127;28;61114;-71
2024/01/17 07:15:51;;;;;;;;;;;;;;;;;;5022026;28;59890;-72
2024/01/17 07:18:16;;;;;;;;;;;;;;;;;;5022663;28;60205;-72
2024/01/17 07:20:41;;;;;;;;;;;;;;;;;;5021482;28;59741;-72
2024/01/17 07:23:06;;;;;;;;;;;;;;;;;;5020764;28;59281;-73
2024/01/17 07:25:32;;;;;;;;;;;;;;;;;;5023504;28;60597;-72
2024/01/17 07:27:57;;;;;;;;;;;;;;;;;;5020937;28;59317;-72
2024/01/17 07:30:22;;;;;;;;;;;;;;;;;;5022928;28;59285;-72
2024/01/17 07:32:47;;;;;;;;;;;;;;;;;;5022273;28;60334;-72
2024/01/17 07:35:14;;;;;;;;;;;;;;;;;;5021551;28;59377;-71
2024/01/17 07:37:39;;;;;;;;;;;;;;;;;;5023995;28;59598;-72
2024/01/17 07:40:04;;;;;;;;;;;;;;;;;;5022145;28;59137;-72
2024/01/17 07:42:29;;;;;;;;;;;;;;;;;;5020317;28;59674;-73
2024/01/17 07:44:54;;;;;;;;;;;;;;;;;;5021936;28;60164;-72
2024/01/17 07:47:19;;;;;;;;;;;;;;;;;;5020876;28;59598;-71
2024/01/17 07:49:45;;;;;;;;;;;;;;;;;;5024338;28;59293;-72
2024/01/17 07:52:10;;;;;;;;;;;;;;;;;;5021323;28;60729;-72
2024/01/17 07:54:35;;;;;;;;;;;;;;;;;;5020987;28;59365;-72
2024/01/17 07:57:00;;;;;;;;;;;;;;;;;;5020375;28;59245;-72
2024/01/17 07:59:26;;;;;;;;;;;;;;;;;;5019987;28;59848;-71
2024/01/17 08:01:51;;;;;;;;;;;;;;;;;;5022930;28;59124;-75
2024/01/17 08:04:16;;;;;;;;;;;;;;;;;;5022184;28;61541;-75
2024/01/17 08:06:41;;;;;;;;;;;;;;;;;;5022189;28;59576;-75
2024/01/17 08:09:20;;;;;;;;;;;;;;;;;;5021894;28;58694;-75
2024/01/17 08:11:45;;;;;;;;;;;;;;;;;;5020630;27;61267;-71
2024/01/17 08:14:10;;;;;;;;;;;;;;;;;;5019415;28;59677;-72
2024/01/17 08:16:35;;;;;;;;;;;;;;;;;;5021684;28;59642;-72
2024/01/17 08:19:00;;;;;;;;;;;;;;;;;;5019447;27;60714;-72
2024/01/17 08:21:26;;;;;;;;;;;;;;;;;;5019916;28;59214;-72
2024/01/17 08:23:51;;;;;;;;;;;;;;;;;;5021113;28;60179;-72
2024/01/17 08:26:16;;;;;;;;;;;;;;;;;;5020463;28;59499;-72
2024/01/17 08:28:43;;;;;;;;;;;;;;;;;;5022605;28;59218;-72
2024/01/17 08:31:08;;;;;;;;;;;;;;;;;;5021449;28;60224;-73
2024/01/17 08:33:36;;;;;;;;;;;;;;;;;;5020810;28;60089;-72
2024/01/17 08:36:01;;;;;;;;;;;;;;;;;;5017848;28;59303;-72
2024/01/17 08:38:26;;;;;;;;;;;;;;;;;;5023750;27;60402;-72
2024/01/17 08:40:51;;;;;;;;;;;;;;;;;;5025592;28;60429;-72
2024/01/17 08:43:17;;;;;;;;;;;;;;;;;;5026243;28;61170;-72
2024/01/17 08:45:42;;;;;;;;;;;;;;;;;;5024286;27;59166;-71
2024/01/17 08:48:07;;;;;;;;;;;;;;;;;;5022567;28;59367;-73
2024/01/17 08:50:32;;;;;;;;;;;;;;;;;;5023795;27;60206;-72
2024/01/17 08:52:58;;;;;;;;;;;;;;;;;;5021606;28;59383;-71
2024/01/17 08:55:23;;;;;;;;;;;;;;;;;;5024297;28;59465;-71
2024/01/17 08:57:48;;;;;;;;;;;;;;;;;;5023700;28;60333;-71
2024/01/17 09:00:14;;;;;;;;;;;;;;;;;;5024669;27;59739;-72
2024/01/17 09:02:39;;;;;;;;;;;;;;;;;;5025414;27;59680;-73
2024/01/17 09:05:04;;;;;;;;;;;;;;;;;;5024340;27;60419;-72
2024/01/17 09:07:29;;;;;;;;;;;;;;;;;;5024546;28;59241;-72
2024/01/17 09:09:54;;;;;;;;;;;;;;;;;;5024102;28;60429;-72
2024/01/17 09:12:19;;;;;;;;;;;;;;;;;;5022582;28;59558;-72
2024/01/17 09:14:44;;;;;;;;;;;;;;;;;;5024918;28;59644;-72
2024/01/17 09:17:09;;;;;;;;;;;;;;;;;;5025386;28;61883;-72
2024/01/17 09:19:35;;;;;;;;;;;;;;;;;;5022601;28;60041;-73
2024/01/17 09:22:00;;;;;;;;;;;;;;;;;;5024457;28;59624;-72
2024/01/17 09:24:25;;;;;;;;;;;;;;;;;;5024921;27;60260;-73
2024/01/17 09:26:51;;;;;;;;;;;;;;;;;;5023121;27;59433;-72
2024/01/17 09:29:16;;;;;;;;;;;;;;;;;;5022583;27;59490;-71
2024/01/17 09:31:41;;;;;;;;;;;;;;;;;;5025467;28;59709;-73
2024/01/17 09:34:07;;;;;;;;;;;;;;;;;;5024628;28;59400;-72
2024/01/17 09:36:32;;;;;;;;;;;;;;;;;;5021754;27;60087;-73
2024/01/17 09:38:57;;;;;;;;;;;;;;;;;;5023642;27;60397;-72
2024/01/17 09:41:22;;;;;;;;;;;;;;;;;;5022171;27;59742;-71
2024/01/17 09:43:47;;;;;;;;;;;;;;;;;;5023147;28;59945;-72
2024/01/17 09:46:12;;;;;;;;;;;;;;;;;;5023591;27;59264;-72
2024/01/17 09:48:37;;;;;;;;;;;;;;;;;;5024872;27;60214;-71
2024/01/17 09:51:03;;;;;;;;;;;;;;;;;;5022279;27;58909;-72
2024/01/17 09:53:28;;;;;;;;;;;;;;;;;;5023558;28;59348;-71
2024/01/17 09:55:53;;;;;;;;;;;;;;;;;;5023688;28;59653;-71
2024/01/17 09:58:18;;;;;;;;;;;;;;;;;;5024532;28;59357;-72
2024/01/17 10:00:43;;;;;;;;;;;;;;;;;;5023765;28;59439;-73
2024/01/17 10:03:09;;;;;;;;;;;;;;;;;;5023016;28;60276;-71
2024/01/17 10:05:34;;;;;;;;;;;;;;;;;;5021257;28;59129;-72
2024/01/17 10:08:00;;;;;;;;;;;;;;;;;;5022542;27;59075;-72
2024/01/17 10:10:25;;;;;;;;;;;;;;;;;;5022057;28;60234;-72
2024/01/17 10:12:50;;;;;;;;;;;;;;;;;;5023164;27;59178;-72
2024/01/17 10:15:15;;;;;;;;;;;;;;;;;;5023083;28;60198;-71
2024/01/17 10:17:40;;;;;;;;;;;;;;;;;;5024651;28;60549;-72
2024/01/17 10:20:06;;;;;;;;;;;;;;;;;;5020673;28;59206;-71
2024/01/17 10:22:32;;;;;;;;;;;;;;;;;;5024192;28;60597;-71
2024/01/17 10:24:57;;;;;;;;;;;;;;;;;;5019865;28;59705;-72
2024/01/17 10:27:22;;;;;;;;;;;;;;;;;;5024692;28;59775;-71
2024/01/17 10:29:47;;;;;;;;;;;;;;;;;;5023058;28;59652;-71
2024/01/17 10:32:12;;;;;;;;;;;;;;;;;;5024301;28;59207;-74
2024/01/17 10:34:41;;;;;;;;;;;;;;;;;;5023645;28;60180;-74
2024/01/17 10:37:06;;;;;;;;;;;;;;;;;;5021418;28;59237;-74
2024/01/17 10:39:31;;;;;;;;;;;;;;;;;;5021684;27;59292;-75
2024/01/17 10:41:58;;;;;;;;;;;;;;;;;;5023277;27;59673;-71
2024/01/17 10:44:23;;;;;;;;;;;;;;;;;;5023393;27;59530;-71
2024/01/17 10:46:48;;;;;;;;;;;;;;;;;;5022410;28;59374;-71
2024/01/17 10:49:13;;;;;;;;;;;;;;;;;;5021596;28;62103;-71
2024/01/17 10:51:38;;;;;;;;;;;;;;;;;;5023023;27;59887;-71
2024/01/17 10:54:03;;;;;;;;;;;;;;;;;;5021580;28;60241;-72
2024/01/17 10:56:29;;;;;;;;;;;;;;;;;;5020249;27;59494;-72
2024/01/17 10:58:54;;;;;;;;;;;;;;;;;;5021892;27;59258;-72
2024/01/17 11:01:19;;;;;;;;;;;;;;;;;;5022892;28;61847;-71
2024/01/17 11:03:44;;;;;;;;;;;;;;;;;;5021416;28;59623;-72
2024/01/17 11:06:10;;;;;;;;;;;;;;;;;;5020114;28;59297;-71
2024/01/17 11:08:35;;;;;;;;;;;;;;;;;;5023089;27;60394;-71
2024/01/17 11:11:00;;;;;;;;;;;;;;;;;;5021809;28;59650;-71
2024/01/17 11:13:25;;;;;;;;;;;;;;;;;;5022504;28;60741;-71
2024/01/17 11:15:50;;;;;;;;;;;;;;;;;;5019783;27;59426;-72
2024/01/17 11:18:16;;;;;;;;;;;;;;;;;;5022130;28;59771;-71
2024/01/17 11:20:41;;;;;;;;;;;;;;;;;;5022218;28;60198;-71
2024/01/17 11:23:06;;;;;;;;;;;;;;;;;;5021356;28;59522;-72
2024/01/17 11:25:31;;;;;;;;;;;;;;;;;;5020971;28;59374;-72
2024/01/17 11:27:56;;;;;;;;;;;;;;;;;;5021232;28;60238;-71
2024/01/17 11:30:21;;;;;;;;;;;;;;;;;;5020865;28;59267;-71
2024/01/17 11:32:47;;;;;;;;;;;;;;;;;;5023112;28;59536;-71
2024/01/17 11:35:12;;;;;;;;;;;;;;;;;;5020306;28;59501;-71
2024/01/17 11:37:39;;;;;;;;;;;;;;;;;;5021545;28;59650;-72
2024/01/17 11:40:04;;;;;;;;;;;;;;;;;;5019497;28;60384;-71
2024/01/17 11:42:29;;;;;;;;;;;;;;;;;;5020416;28;59501;-75
2024/01/17 11:44:55;;;;;;;;;;;;;;;;;;5021558;28;77037;-74
2024/01/17 11:47:20;;;;;;;;;;;;;;;;;;5018972;28;60979;-74
2024/01/17 11:49:46;;;;;;;;;;;;;;;;;;5022718;28;59969;-74
2024/01/17 11:52:12;;;;;;;;;;;;;;;;;;5023370;28;59465;-75
2024/01/17 11:54:37;;;;;;;;;;;;;;;;;;5020391;28;60137;-75
2024/01/17 11:57:02;;;;;;;;;;;;;;;;;;5023163;27;59404;-74
2024/01/17 11:59:27;;;;;;;;;;;;;;;;;;5020192;28;60513;-74
2024/01/17 12:01:53;;;;;;;;;;;;;;;;;;5020406;28;59673;-74
2024/01/17 12:04:18;;;;;;;;;;;;;;;;;;5022246;28;59510;-74
2024/01/17 12:06:43;;;;;;;;;;;;;;;;;;5019834;28;60588;-75
2024/01/17 12:09:15;;;;;;;;;;;;;;;;;;5020650;28;58663;-75
2024/01/17 12:11:40;;;;;;;;;;;;;;;;;;5021016;28;59464;-74
2024/01/17 12:14:05;;;;;;;;;;;;;;;;;;5022162;28;60831;-75
2024/01/17 12:16:30;;;;;;;;;;;;;;;;;;5021785;28;59282;-75
2024/01/17 12:18:55;;;;;;;;;;;;;;;;;;5020227;28;60125;-75
2024/01/17 12:21:20;;;;;;;;;;;;;;;;;;5020687;27;59197;-75
2024/01/17 12:23:45;;;;;;;;;;;;;;;;;;5020295;28;59015;-74
2024/01/17 12:26:11;;;;;;;;;;;;;;;;;;5020097;28;60293;-74
2024/01/17 12:28:36;;;;;;;;;;;;;;;;;;5020450;28;59976;-74
2024/01/17 12:31:01;;;;;;;;;;;;;;;;;;5020391;28;59473;-73
2024/01/17 12:33:26;;;;;;;;;;;;;;;;;;5020860;28;60258;-74
2024/01/17 12:35:51;;;;;;;;;;;;;;;;;;5021696;28;59260;-72
2024/01/17 12:38:17;;;;;;;;;;;;;;;;;;5022237;28;59415;-74
2024/01/17 12:40:42;;;;;;;;;;;;;;;;;;5021541;28;59876;-74
2024/01/17 12:43:07;;;;;;;;;;;;;;;;;;5019243;28;60100;-74
2024/01/17 12:45:32;;;;;;;;;;;;;;;;;;5018762;28;60360;-73
2024/01/17 12:47:57;;;;;;;;;;;;;;;;;;5018408;28;60672;-74
2024/01/17 12:50:23;;;;;;;;;;;;;;;;;;5022502;27;59359;-73
2024/01/17 12:52:48;;;;;;;;;;;;;;;;;;5021559;28;59806;-70
2024/01/17 12:55:14;;;;;;;;;;;;;;;;;;5019469;28;60203;-70
2024/01/17 12:57:39;;;;;;;;;;;;;;;;;;5022649;28;59736;-70
2024/01/17 13:00:10;;;;;;;;;;;;;;;;;;5018620;27;59669;-70
2024/01/17 13:02:35;;;;;;;;;;;;;;;;;;5021177;28;59178;-74
2024/01/17 13:05:00;;;;;;;;;;;;;;;;;;5020472;28;60069;-74
2024/01/17 13:07:26;;;;;;;;;;;;;;;;;;5019946;28;59466;-73
2024/01/17 13:09:52;;;;;;;;;;;;;;;;;;5020954;28;59581;-74
2024/01/17 13:12:17;;;;;;;;;;;;;;;;;;5020819;28;60787;-73
2024/01/17 13:14:44;;;;;;;;;;;;;;;;;;5019918;28;60796;-74
2024/01/17 13:17:09;;;;;;;;;;;;;;;;;;5021684;28;59759;-73
2024/01/17 13:19:34;;;;;;;;;;;;;;;;;;5021756;28;60380;-73
2024/01/17 13:22:00;;;;;;;;;;;;;;;;;;5019129;28;59274;-73
2024/01/17 13:24:25;;;;;;;;;;;;;;;;;;5022399;28;61347;-73
2024/01/17 13:26:50;;;;;;;;;;;;;;;;;;5022548;28;59777;-73
2024/01/17 13:29:15;;;;;;;;;;;;;;;;;;5023291;28;59785;-73
2024/01/17 13:31:41;;;;;;;;;;;;;;;;;;5023363;28;60960;-73
2024/01/17 13:34:06;;;;;;;;;;;;;;;;;;5023782;27;59333;-73
2024/01/17 13:36:31;;;;;;;;;;;;;;;;;;5021990;27;59269;-74
2024/01/17 13:38:56;;;;;;;;;;;;;;;;;;5020197;28;61007;-73
2024/01/17 13:41:21;;;;;;;;;;;;;;;;;;5023132;28;60097;-73
2024/01/17 13:43:46;;;;;;;;;;;;;;;;;;5024635;28;59410;-73
2024/01/17 13:46:11;;;;;;;;;;;;;;;;;;5017318;28;58900;-74
2024/01/17 13:48:37;;;;;;;;;;;;;;;;;;5022122;27;59203;-73
2024/01/17 13:51:02;;;;;;;;;;;;;;;;;;5021317;28;60184;-73
2024/01/17 13:53:36;;;;;;;;;;;;;;;;;;5017106;28;59897;-72
2024/01/17 13:56:05;;;;;;;;;;;;;;;;;;5018364;27;59721;-74
2024/01/17 13:58:31;;;;;;;;;;;;;;;;;;5023525;28;61407;-74
2024/01/17 14:00:59;;;;;;;;;;;;;;;;;;5018683;28;60387;-71
2024/01/17 14:03:25;;;;;;;;;;;;;;;;;;5024467;28;59755;-70
2024/01/17 14:05:50;;;;;;;;;;;;;;;;;;5021557;27;59894;-73
2024/01/17 14:08:15;;;;;;;;;;;;;;;;;;5020780;28;59399;-70
2024/01/17 14:10:40;;;;;;;;;;;;;;;;;;5023437;28;60731;-71
2024/01/17 14:13:06;;;;;;;;;;;;;;;;;;5023986;28;59448;-72
2024/01/17 14:15:32;;;;;;;;;;;;;;;;;;5020325;28;59374;-75
2024/01/17 14:17:59;;;;;;;;;;;;;;;;;;5024939;27;60259;-74
2024/01/17 14:20:24;;;;;;;;;;;;;;;;;;5020922;28;59677;-73
2024/01/17 14:22:51;;;;;;;;;;;;;;;;;;5022983;28;59250;-73
2024/01/17 14:25:16;;;;;;;;;;;;;;;;;;5021570;28;61150;-74
2024/01/17 14:27:41;;;;;;;;;;;;;;;;;;5023753;28;59508;-73
2024/01/17 14:30:07;;;;;;;;;;;;;;;;;;5022755;27;59695;-73
2024/01/17 14:32:32;;;;;;;;;;;;;;;;;;5021234;28;59593;-74
2024/01/17 14:34:57;;;;;;;;;;;;;;;;;;5020897;28;60568;-73
2024/01/17 14:37:22;;;;;;;;;;;;;;;;;;5023369;28;59399;-74
2024/01/17 14:39:48;;;;;;;;;;;;;;;;;;5021782;28;60388;-73
2024/01/17 14:42:21;;;;;;;;;;;;;;;;;;5022885;28;59306;-74
2024/01/17 14:44:46;;;;;;;;;;;;;;;;;;5021448;28;61100;-73
2024/01/17 14:47:11;;;;;;;;;;;;;;;;;;5023658;27;59625;-73
2024/01/17 14:49:36;;;;;;;;;;;;;;;;;;5022076;28;60717;-73
2024/01/17 14:52:02;;;;;;;;;;;;;;;;;;5021238;28;59416;-74
2024/01/17 14:54:27;;;;;;;;;;;;;;;;;;5023892;28;59538;-74
2024/01/17 14:56:53;;;;;;;;;;;;;;;;;;5024677;28;59595;-73
2024/01/17 14:59:18;;;;;;;;;;;;;;;;;;5022347;28;59614;-73
2024/01/17 15:01:43;;;;;;;;;;;;;;;;;;5022674;28;59171;-74
2024/01/17 15:04:08;;;;;;;;;;;;;;;;;;5023893;28;60530;-74
2024/01/17 15:06:33;;;;;;;;;;;;;;;;;;5022478;28;59670;-74
2024/01/17 15:08:58;;;;;;;;;;;;;;;;;;5024314;27;60896;-73
2024/01/17 15:11:23;;;;;;;;;;;;;;;;;;5022499;28;60884;-73
2024/01/17 15:13:48;;;;;;;;;;;;;;;;;;5022919;28;59210;-73
2024/01/17 15:16:13;;;;;;;;;;;;;;;;;;5023313;28;60300;-73
2024/01/17 15:18:39;;;;;;;;;;;;;;;;;;5020355;28;59278;-73
2024/01/17 15:21:04;;;;;;;;;;;;;;;;;;5017461;28;59320;-70
2024/01/17 15:23:29;;;;;;;;;;;;;;;;;;5007112;28;61113;-71
2024/01/17 15:25:54;;;;;;;;;;;;;;;;;;5022550;28;59397;-71
2024/01/17 15:28:21;;;;;;;;;;;;;;;;;;5023211;28;59564;-72
2024/01/17 15:30:46;;;;;;;;;;;;;;;;;;5022953;28;59334;-71
2024/01/17 15:33:11;;;;;;;;;;;;;;;;;;5020963;28;59533;-70
2024/01/17 15:35:36;;;;;;;;;;;;;;;;;;5020681;28;60134;-70
2024/01/17 15:38:02;;;;;;;;;;;;;;;;;;5021214;28;60376;-71
2024/01/17 15:40:27;;;;;;;;;;;;;;;;;;5023645;28;59270;-70
2024/01/17 15:42:52;;;;;;;;;;;;;;;;;;5021259;28;60096;-70
2024/01/17 15:45:17;;;;;;;;;;;;;;;;;;5018844;28;59454;-71
2024/01/17 15:47:42;;;;;;;;;;;;;;;;;;5018711;27;59459;-71
2024/01/17 15:50:07;;;;;;;;;;;;;;;;;;5021285;28;61274;-70
2024/01/17 15:52:32;;;;;;;;;;;;;;;;;;5022866;28;59174;-71
2024/01/17 15:54:57;;;;;;;;;;;;;;;;;;5021031;28;60591;-70
2024/01/17 15:57:22;;;;;;;;;;;;;;;;;;5022180;28;59363;-71
2024/01/17 15:59:47;;;;;;;;;;;;;;;;;;5020965;27;59509;-70
2024/01/17 16:02:12;;;;;;;;;;;;;;;;;;5020753;28;59618;-71
2024/01/17 16:04:38;;;;;;;;;;;;;;;;;;5022023;28;59481;-70
2024/01/17 16:07:03;;;;;;;;;;;;;;;;;;5021699;27;59545;-71
2024/01/17 16:09:28;;;;;;;;;;;;;;;;;;5022250;28;59881;-71
2024/01/17 16:11:53;;;;;;;;;;;;;;;;;;5021929;28;59543;-71
2024/01/17 16:14:18;;;;;;;;;;;;;;;;;;5020740;27;62873;-71
2024/01/17 16:16:43;;;;;;;;;;;;;;;;;;5021539;28;59172;-71
2024/01/17 16:19:08;;;;;;;;;;;;;;;;;;5021457;28;59503;-71
2024/01/17 16:21:33;;;;;;;;;;;;;;;;;;5019985;28;60650;-71
2024/01/17 16:23:58;;;;;;;;;;;;;;;;;;5019540;28;59615;-71
2024/01/17 16:26:23;;;;;;;;;;;;;;;;;;5022432;28;59439;-71
2024/01/17 16:28:49;;;;;;;;;;;;;;;;;;5022079;28;60132;-71
2024/01/17 16:31:14;;;;;;;;;;;;;;;;;;5018763;28;60072;-71